createdAt,value
2022-07-25T00:00:21.102Z,5.40
2022-07-25T00:02:47.625Z,5.28
2022-07-25T00:05:14.126Z,5.47
2022-07-25T00:07:40.663Z,5.00
2022-07-25T00:10:08.086Z,5.25
2022-07-25T00:12:35.363Z,5.40
2022-07-25T00:15:01.778Z,4.75
2022-07-25T00:17:28.359Z,4.85
2022-07-25T00:19:54.718Z,4.88
2022-07-25T00:22:21.136Z,5.13
2022-07-25T00:24:47.634Z,5.28
2022-07-25T00:27:14.044Z,4.93
2022-07-25T00:29:40.496Z,4.90
2022-07-25T00:32:07.191Z,5.97
2022-07-25T00:34:33.724Z,5.57
2022-07-25T00:37:01.296Z,5.70
2022-07-25T00:39:27.853Z,5.60
2022-07-25T00:41:54.309Z,5.28
2022-07-25T00:44:31.301Z,5.30
2022-07-25T00:46:58.743Z,5.50
2022-07-25T00:49:26.137Z,5.00
2022-07-25T00:51:53.595Z,5.38
2022-07-25T00:54:21.092Z,5.22
2022-07-25T00:56:47.991Z,5.22
2022-07-25T00:59:14.760Z,5.63
2022-07-25T01:01:42.615Z,5.22
2022-07-25T01:04:09.534Z,5.63
2022-07-25T01:06:36.552Z,5.20
2022-07-25T01:09:03.944Z,5.38
2022-07-25T01:11:31.321Z,5.13
2022-07-25T01:13:57.807Z,4.85
2022-07-25T01:16:24.399Z,5.55
2022-07-25T01:18:51.010Z,4.60
2022-07-25T01:21:17.551Z,5.50
2022-07-25T01:23:44.006Z,5.45
2022-07-25T01:26:10.624Z,5.00
2022-07-25T01:28:37.130Z,5.68
2022-07-25T01:31:03.617Z,5.50
2022-07-25T01:33:30.223Z,5.63
2022-07-25T01:35:56.684Z,5.57
2022-07-25T01:38:23.211Z,5.28
2022-07-25T01:40:49.633Z,5.70
2022-07-25T01:43:16.122Z,5.22
2022-07-25T01:45:42.703Z,5.35
2022-07-25T01:48:09.224Z,5.95
2022-07-25T01:50:35.759Z,5.68
2022-07-25T01:53:02.358Z,5.78
2022-07-25T01:55:29.359Z,5.63
2022-07-25T01:57:57.136Z,5.15
2022-07-25T02:00:24.193Z,5.65
2022-07-25T02:03:11.421Z,5.82
2022-07-25T02:05:37.904Z,6.20
2022-07-25T02:08:04.710Z,6.00
2022-07-25T02:10:31.571Z,5.93
2022-07-25T02:12:58.100Z,6.13
2022-07-25T02:15:24.470Z,5.78
2022-07-25T02:17:50.894Z,5.93
2022-07-25T02:20:17.466Z,5.50
2022-07-25T02:22:43.851Z,5.45
2022-07-25T02:25:10.616Z,5.90
2022-07-25T02:27:37.489Z,5.95
2022-07-25T02:30:05.935Z,5.95
2022-07-25T02:32:32.377Z,6.03
2022-07-25T02:34:58.820Z,6.10
2022-07-25T02:37:25.454Z,5.90
2022-07-25T02:39:51.882Z,5.57
2022-07-25T02:42:18.256Z,6.10
2022-07-25T02:44:44.778Z,5.97
2022-07-25T02:47:11.170Z,6.10
2022-07-25T02:49:38.384Z,5.60
2022-07-25T02:52:05.052Z,6.70
2022-07-25T02:54:31.451Z,6.10
2022-07-25T02:56:58.466Z,5.72
2022-07-25T02:59:24.872Z,5.83
2022-07-25T03:01:58.842Z,5.27
2022-07-25T03:04:25.492Z,5.73
2022-07-25T03:06:52.069Z,6.35
2022-07-25T03:09:19.474Z,6.22
2022-07-25T03:11:45.935Z,6.32
2022-07-25T03:14:12.458Z,5.67
2022-07-25T03:16:38.918Z,6.20
2022-07-25T03:19:10.194Z,5.73
2022-07-25T03:21:38.127Z,5.70
2022-07-25T03:24:05.083Z,5.93
2022-07-25T03:26:31.750Z,6.80
2022-07-25T03:28:58.219Z,6.40
2022-07-25T03:31:24.872Z,6.50
2022-07-25T03:33:51.306Z,6.10
2022-07-25T03:36:17.791Z,6.50
2022-07-25T03:38:44.253Z,6.93
2022-07-25T03:41:10.716Z,6.03
2022-07-25T03:43:37.460Z,5.90
2022-07-25T03:46:03.931Z,6.33
2022-07-25T03:48:30.712Z,6.20
2022-07-25T03:50:57.381Z,6.57
2022-07-25T03:53:23.885Z,7.33
2022-07-25T03:55:50.677Z,6.53
2022-07-25T03:58:17.040Z,7.23
2022-07-25T04:00:43.437Z,6.63
2022-07-25T04:03:10.418Z,6.83
2022-07-25T04:05:36.811Z,6.23
2022-07-25T04:08:03.382Z,6.07
2022-07-25T04:10:31.488Z,6.43
2022-07-25T04:12:57.861Z,6.93
2022-07-25T04:15:24.247Z,7.10
2022-07-25T04:17:50.755Z,6.73
2022-07-25T04:20:17.236Z,6.80
2022-07-25T04:22:46.994Z,6.93
2022-07-25T04:25:14.075Z,6.23
2022-07-25T04:27:40.476Z,6.40
2022-07-25T04:30:07.457Z,6.90
2022-07-25T04:32:33.953Z,6.83
2022-07-25T04:35:00.356Z,7.00
2022-07-25T04:37:26.828Z,7.03
2022-07-25T04:39:53.234Z,7.13
2022-07-25T04:42:19.583Z,6.80
2022-07-25T04:44:45.968Z,7.07
2022-07-25T04:47:12.516Z,6.80
2022-07-25T04:49:38.912Z,6.53
2022-07-25T04:52:05.629Z,6.80
2022-07-25T04:54:32.166Z,6.83
2022-07-25T04:56:58.574Z,6.17
2022-07-25T04:59:25.065Z,6.60
2022-07-25T05:01:51.595Z,6.07
2022-07-25T05:04:18.160Z,5.93
2022-07-25T05:06:44.590Z,6.63
2022-07-25T05:09:10.999Z,6.17
2022-07-25T05:11:37.538Z,5.95
2022-07-25T05:14:04.282Z,6.80
2022-07-25T05:16:31.177Z,6.10
2022-07-25T05:18:57.711Z,6.20
2022-07-25T05:21:24.187Z,6.20
2022-07-25T05:23:50.583Z,5.87
2022-07-25T05:26:17.123Z,6.17
2022-07-25T05:28:43.562Z,5.30
2022-07-25T05:31:10.034Z,5.93
2022-07-25T05:33:36.618Z,5.97
2022-07-25T05:36:05.029Z,5.30
2022-07-25T05:38:31.522Z,5.88
2022-07-25T05:40:57.912Z,5.68
2022-07-25T05:43:24.342Z,5.72
2022-07-25T05:45:50.891Z,5.55
2022-07-25T05:48:17.539Z,5.20
2022-07-25T05:50:45.902Z,5.10
2022-07-25T05:53:12.416Z,5.63
2022-07-25T05:55:40.709Z,4.63
2022-07-25T05:58:07.338Z,5.20
2022-07-25T06:00:33.726Z,4.90
2022-07-25T06:03:00.656Z,4.90
2022-07-25T06:05:27.759Z,4.80
2022-07-25T06:07:54.283Z,4.68
2022-07-25T06:10:21.545Z,5.00
2022-07-25T06:12:48.109Z,4.90
2022-07-25T06:15:22.434Z,4.88
2022-07-25T06:17:53.310Z,5.32
2022-07-25T06:20:19.879Z,4.90
2022-07-25T06:22:46.284Z,4.70
2022-07-25T06:25:12.893Z,4.95
2022-07-25T06:27:39.374Z,5.13
2022-07-25T06:30:18.717Z,5.38
2022-07-25T06:32:46.582Z,4.68
2022-07-25T06:35:13.129Z,5.18
2022-07-25T06:37:39.907Z,4.90
2022-07-25T06:40:07.647Z,5.25
2022-07-25T06:42:38.556Z,4.93
2022-07-25T06:45:06.316Z,4.57
2022-07-25T06:47:35.905Z,4.90
2022-07-25T06:50:03.131Z,5.13
2022-07-25T06:52:29.636Z,5.22
2022-07-25T06:54:56.085Z,4.95
2022-07-25T06:57:22.617Z,4.93
2022-07-25T06:59:49.071Z,5.05
2022-07-25T07:02:15.546Z,4.93
2022-07-25T07:04:42.462Z,4.28
2022-07-25T07:07:08.868Z,5.20
2022-07-25T07:09:35.456Z,5.25
2022-07-25T07:12:01.824Z,5.15
2022-07-25T07:14:28.250Z,4.53
2022-07-25T07:16:55.055Z,4.72
2022-07-25T07:19:21.490Z,4.47
2022-07-25T07:21:50.098Z,4.72
2022-07-25T07:24:23.482Z,5.30
2022-07-25T07:26:51.755Z,5.20
2022-07-25T07:29:18.108Z,4.93
2022-07-25T07:31:44.699Z,5.20
2022-07-25T07:34:11.392Z,5.35
2022-07-25T07:36:41.714Z,4.95
2022-07-25T07:39:08.466Z,5.20
2022-07-25T07:41:35.108Z,4.90
2022-07-25T07:44:01.591Z,4.78
2022-07-25T07:46:28.140Z,5.05
2022-07-25T07:48:54.626Z,5.05
2022-07-25T07:51:21.391Z,5.07
2022-07-25T07:54:06.765Z,5.57
2022-07-25T07:56:33.269Z,5.35
2022-07-25T07:58:59.792Z,5.00
2022-07-25T08:01:27.022Z,5.63
2022-07-25T08:03:53.512Z,5.10
2022-07-25T08:06:19.902Z,5.18
2022-07-25T08:08:46.471Z,5.10
2022-07-25T08:11:12.976Z,5.07
2022-07-25T08:13:39.377Z,5.65
2022-07-25T08:16:07.748Z,4.85
2022-07-25T08:18:34.270Z,5.00
2022-07-25T08:21:06.171Z,5.00
2022-07-25T08:23:35.517Z,5.32
2022-07-25T08:26:02.409Z,5.90
2022-07-25T08:28:28.957Z,5.22
2022-07-25T08:30:55.457Z,4.68
2022-07-25T08:33:22.139Z,5.22
2022-07-25T08:35:52.100Z,5.15
2022-07-25T08:38:18.858Z,5.30
2022-07-25T08:40:45.805Z,5.57
2022-07-25T08:43:14.041Z,5.22
2022-07-25T08:45:48.868Z,5.25
2022-07-25T08:48:23.873Z,5.10
2022-07-25T08:50:51.635Z,5.00
2022-07-25T08:53:35.903Z,5.20
2022-07-25T08:56:16.037Z,4.80
2022-07-25T08:58:44.571Z,4.78
2022-07-25T09:01:12.554Z,4.75
2022-07-25T09:03:40.170Z,5.03
2022-07-25T09:06:22.025Z,5.43
2022-07-25T09:08:56.701Z,5.38
2022-07-25T09:11:41.254Z,5.20
2022-07-25T09:14:14.938Z,4.80
2022-07-25T09:16:44.614Z,5.18
2022-07-25T09:19:19.763Z,5.13
2022-07-25T09:21:59.692Z,5.25
2022-07-25T09:24:26.515Z,5.15
2022-07-25T09:26:55.410Z,4.90
2022-07-25T09:29:24.958Z,5.22
2022-07-25T09:31:53.211Z,4.93
2022-07-25T09:34:49.952Z,4.90
2022-07-25T09:37:19.854Z,5.53
2022-07-25T09:39:49.798Z,5.50
2022-07-25T09:42:28.397Z,4.95
2022-07-25T09:45:04.111Z,5.20
2022-07-25T09:47:32.211Z,4.90
2022-07-25T09:49:59.096Z,4.95
2022-07-25T09:52:25.935Z,5.07
2022-07-25T09:54:54.653Z,5.32
2022-07-25T09:57:23.991Z,5.22
2022-07-25T09:59:50.814Z,5.60
2022-07-25T10:03:05.575Z,5.00
2022-07-25T10:05:50.556Z,6.10
2022-07-25T10:08:18.792Z,5.50
2022-07-25T10:10:45.342Z,5.05
2022-07-25T10:13:17.765Z,5.25
2022-07-25T10:15:49.462Z,5.68
2022-07-25T10:18:19.207Z,5.43
2022-07-25T10:20:47.641Z,5.50
2022-07-25T10:23:25.666Z,5.43
2022-07-25T10:26:16.060Z,5.40
2022-07-25T10:28:51.339Z,5.28
2022-07-25T10:31:24.895Z,5.20
2022-07-25T10:33:53.216Z,4.97
2022-07-25T10:36:21.405Z,5.38
2022-07-25T10:38:50.632Z,6.10
2022-07-25T10:41:17.400Z,5.22
2022-07-25T10:43:48.481Z,5.60
2022-07-25T10:46:19.577Z,5.28
2022-07-25T10:48:58.273Z,5.70
2022-07-25T10:51:31.784Z,5.47
2022-07-25T10:53:58.751Z,5.07
2022-07-25T10:56:28.025Z,5.72
2022-07-25T10:58:55.679Z,5.43
2022-07-25T11:01:24.600Z,5.20
2022-07-25T11:03:52.931Z,5.18
2022-07-25T11:06:34.570Z,5.32
2022-07-25T11:09:02.921Z,5.22
2022-07-25T11:11:42.352Z,5.45
2022-07-25T11:14:23.504Z,5.03
2022-07-25T11:16:52.376Z,5.22
2022-07-25T11:19:21.749Z,5.15
2022-07-25T11:21:50.567Z,4.82
2022-07-25T11:24:17.593Z,5.13
2022-07-25T11:26:49.295Z,4.95
2022-07-25T11:29:19.383Z,4.78
2022-07-25T11:31:53.212Z,4.65
2022-07-25T11:34:24.332Z,4.95
2022-07-25T11:36:55.256Z,4.60
2022-07-25T11:39:22.805Z,4.50
2022-07-25T11:42:02.640Z,4.50
2022-07-25T11:44:35.276Z,4.60
2022-07-25T11:47:03.656Z,5.07
2022-07-25T11:49:30.601Z,4.05
2022-07-25T11:51:57.174Z,4.65
2022-07-25T11:54:23.661Z,5.13
2022-07-25T11:56:50.386Z,4.88
2022-07-25T11:59:17.003Z,5.30
2022-07-25T12:01:44.738Z,4.38
2022-07-25T12:04:14.436Z,4.50
2022-07-25T12:06:45.448Z,4.50
2022-07-25T12:09:19.316Z,4.25
2022-07-25T12:11:47.622Z,4.80
2022-07-25T12:14:15.983Z,4.18
2022-07-25T12:16:42.706Z,3.65
2022-07-25T12:19:18.876Z,3.67
2022-07-25T12:21:45.715Z,4.07
2022-07-25T12:24:12.451Z,3.67
2022-07-25T12:26:39.143Z,3.53
2022-07-25T12:29:05.756Z,3.90
2022-07-25T12:31:32.375Z,3.85
2022-07-25T12:33:59.246Z,3.40
2022-07-25T12:36:25.797Z,3.55
2022-07-25T12:38:52.252Z,4.38
2022-07-25T12:41:22.561Z,3.80
2022-07-25T12:43:49.722Z,3.92
2022-07-25T12:46:16.862Z,3.70
2022-07-25T12:48:44.036Z,3.38
2022-07-25T12:51:10.893Z,3.88
2022-07-25T12:53:41.985Z,3.70
2022-07-25T12:56:09.184Z,3.17
2022-07-25T12:58:36.698Z,3.35
2022-07-25T13:01:04.390Z,3.50
2022-07-25T13:03:30.878Z,3.30
2022-07-25T13:05:57.421Z,3.38
2022-07-25T13:08:24.523Z,2.70
2022-07-25T13:10:50.964Z,5.95
2022-07-25T13:13:17.473Z,3.63
2022-07-25T13:15:43.990Z,3.55
2022-07-25T13:18:10.491Z,3.75
2022-07-25T13:20:37.456Z,3.00
2022-07-25T13:23:04.195Z,3.35
2022-07-25T13:25:31.352Z,3.33
2022-07-25T13:27:57.766Z,2.90
2022-07-25T13:30:24.314Z,2.95
2022-07-25T13:32:51.649Z,3.00
2022-07-25T13:35:20.647Z,3.30
2022-07-25T13:37:48.325Z,2.72
2022-07-25T13:40:14.760Z,3.50
2022-07-25T13:42:41.295Z,3.30
2022-07-25T13:45:08.176Z,2.53
2022-07-25T13:47:35.867Z,2.72
2022-07-25T13:50:02.498Z,2.83
2022-07-25T13:52:28.865Z,2.83
2022-07-25T13:54:55.359Z,2.67
2022-07-25T13:57:21.758Z,2.85
2022-07-25T13:59:48.651Z,2.65
2022-07-25T14:02:15.217Z,2.72
2022-07-25T14:04:41.646Z,2.60
2022-07-25T14:07:08.214Z,2.25
2022-07-25T14:09:34.978Z,2.25
2022-07-25T14:12:01.353Z,2.22
2022-07-25T14:14:28.102Z,2.03
2022-07-25T14:16:55.534Z,2.17
2022-07-25T14:19:23.719Z,2.05
2022-07-25T14:21:50.208Z,3.15
2022-07-25T14:24:16.964Z,2.40
2022-07-25T14:26:43.708Z,2.03
2022-07-25T14:29:11.268Z,1.83
2022-07-25T14:31:40.077Z,2.13
2022-07-25T14:34:07.306Z,2.20
2022-07-25T14:36:34.695Z,1.75
2022-07-25T14:39:02.802Z,2.33
2022-07-25T14:41:29.522Z,2.35
2022-07-25T14:43:55.969Z,1.90
2022-07-25T14:46:22.510Z,2.20
2022-07-25T14:48:49.209Z,2.20
2022-07-25T14:51:17.836Z,1.90
2022-07-25T14:53:44.271Z,2.50
2022-07-25T14:56:11.995Z,2.15
2022-07-25T14:58:39.212Z,2.47
2022-07-25T15:01:06.300Z,2.35
2022-07-25T15:03:32.772Z,2.03
2022-07-25T15:05:59.190Z,1.63
2022-07-25T15:08:25.775Z,2.05
2022-07-25T15:10:52.178Z,2.10
2022-07-25T15:13:31.137Z,2.60
2022-07-25T15:15:58.585Z,2.00
2022-07-25T15:18:25.146Z,2.10
2022-07-25T15:20:52.019Z,2.42
2022-07-25T15:23:18.605Z,2.70
2022-07-25T15:26:03.918Z,2.50
2022-07-25T15:28:36.424Z,2.33
2022-07-25T15:31:04.294Z,2.90
2022-07-25T15:33:31.382Z,3.70
2022-07-25T15:35:58.107Z,2.53
2022-07-25T15:38:24.572Z,2.78
2022-07-25T15:40:51.127Z,2.88
2022-07-25T15:43:17.549Z,2.55
2022-07-25T15:45:46.182Z,2.17
2022-07-25T15:48:14.275Z,2.63
2022-07-25T15:50:44.798Z,2.90
2022-07-25T15:53:12.092Z,2.10
2022-07-25T15:55:40.820Z,2.50
2022-07-25T15:58:09.504Z,2.40
2022-07-25T16:00:36.871Z,2.40
2022-07-25T16:03:03.544Z,2.10
2022-07-25T16:05:31.068Z,2.13
2022-07-25T16:08:01.025Z,2.10
2022-07-25T16:10:28.963Z,2.00
2022-07-25T16:12:55.413Z,1.73
2022-07-25T16:15:22.170Z,1.85
2022-07-25T16:17:50.457Z,2.22
2022-07-25T16:20:16.908Z,2.42
2022-07-25T16:22:43.360Z,2.05
2022-07-25T16:25:09.824Z,2.00
2022-07-25T16:27:36.427Z,2.15
2022-07-25T16:30:05.056Z,2.30
2022-07-25T16:32:32.003Z,2.28
2022-07-25T16:34:58.408Z,2.25
2022-07-25T16:37:25.128Z,2.50
2022-07-25T16:39:51.541Z,2.22
2022-07-25T16:42:17.978Z,2.55
2022-07-25T16:44:44.510Z,2.35
2022-07-25T16:47:11.035Z,2.40
2022-07-25T16:49:38.127Z,2.17
2022-07-25T16:52:04.792Z,2.15
2022-07-25T16:54:32.970Z,2.10
2022-07-25T16:56:59.885Z,2.25
2022-07-25T16:59:26.946Z,2.55
2022-07-25T17:01:53.625Z,1.90
2022-07-25T17:04:21.091Z,2.30
2022-07-25T17:06:47.798Z,2.80
2022-07-25T17:09:14.282Z,2.25
2022-07-25T17:11:40.889Z,2.20
2022-07-25T17:14:07.297Z,2.72
2022-07-25T17:16:33.896Z,2.20
2022-07-25T17:19:01.929Z,2.50
2022-07-25T17:21:28.498Z,2.97
2022-07-25T17:23:56.366Z,2.30
2022-07-25T17:26:22.771Z,2.17
2022-07-25T17:28:49.415Z,2.78
2022-07-25T17:31:15.884Z,2.55
2022-07-25T17:33:42.342Z,2.30
2022-07-25T17:36:09.305Z,2.30
2022-07-25T17:38:37.328Z,2.30
2022-07-25T17:41:04.472Z,2.40
2022-07-25T17:43:30.971Z,2.22
2022-07-25T17:45:57.365Z,2.92
2022-07-25T17:48:23.832Z,2.47
2022-07-25T17:50:50.262Z,2.35
2022-07-25T17:53:18.015Z,3.13
2022-07-25T17:55:45.281Z,2.25
2022-07-25T17:58:13.143Z,2.45
2022-07-25T18:00:39.953Z,2.60
2022-07-25T18:03:06.610Z,2.70
2022-07-25T18:05:33.256Z,2.30
2022-07-25T18:08:00.133Z,2.38
2022-07-25T18:10:26.623Z,2.35
2022-07-25T18:12:53.117Z,2.28
2022-07-25T18:15:20.022Z,2.25
2022-07-25T18:17:48.069Z,2.65
2022-07-25T18:20:15.754Z,2.10
2022-07-25T18:22:42.851Z,2.28
2022-07-25T18:25:11.499Z,2.65
2022-07-25T18:27:45.437Z,2.05
2022-07-25T18:30:12.975Z,2.25
2022-07-25T18:32:39.707Z,2.10
2022-07-25T18:35:07.817Z,2.67
2022-07-25T18:37:35.345Z,2.20
2022-07-25T18:40:02.213Z,2.00
2022-07-25T18:42:30.054Z,2.50
2022-07-25T18:44:57.094Z,2.35
2022-07-25T18:47:26.301Z,2.00
2022-07-25T18:49:57.095Z,2.13
2022-07-25T18:52:23.901Z,2.17
2022-07-25T18:54:50.824Z,2.05
2022-07-25T18:57:17.590Z,2.25
2022-07-25T18:59:44.004Z,2.05
2022-07-25T19:02:10.765Z,2.10
2022-07-25T19:04:37.480Z,1.95
2022-07-25T19:07:04.008Z,2.10
2022-07-25T19:09:30.363Z,2.20
2022-07-25T19:11:56.797Z,3.55
2022-07-25T19:14:25.957Z,1.70
2022-07-25T19:16:53.511Z,1.73
2022-07-25T19:19:23.301Z,1.45
2022-07-25T19:21:50.018Z,1.95
2022-07-25T19:24:16.599Z,2.00
2022-07-25T19:26:43.599Z,1.90
2022-07-25T19:29:16.348Z,2.08
2022-07-25T19:31:43.129Z,1.80
2022-07-25T19:34:09.903Z,1.85
2022-07-25T19:36:36.876Z,1.90
2022-07-25T19:39:05.957Z,1.90
2022-07-25T19:41:32.825Z,1.60
2022-07-25T19:43:59.427Z,1.60
2022-07-25T19:46:29.649Z,1.83
2022-07-25T19:48:56.308Z,1.60
2022-07-25T19:51:22.850Z,1.90
2022-07-25T19:53:49.235Z,1.30
2022-07-25T19:56:15.735Z,1.92
2022-07-25T19:58:43.342Z,1.70
2022-07-25T20:01:10.485Z,1.40
2022-07-25T20:03:36.992Z,2.00
2022-07-25T20:06:08.104Z,1.75
2022-07-25T20:08:36.312Z,1.63
2022-07-25T20:11:02.754Z,1.67
2022-07-25T20:13:29.621Z,1.40
2022-07-25T20:15:56.309Z,1.30
2022-07-25T20:18:22.697Z,1.65
2022-07-25T20:20:49.088Z,1.02
2022-07-25T20:23:15.667Z,1.67
2022-07-25T20:25:42.234Z,1.10
2022-07-25T20:28:08.779Z,1.02
2022-07-25T20:30:35.475Z,1.35
2022-07-25T20:33:08.880Z,1.65
2022-07-25T20:35:37.377Z,1.58
2022-07-25T20:38:04.455Z,1.40
2022-07-25T20:40:37.785Z,1.42
2022-07-25T20:43:07.447Z,1.00
2022-07-25T20:45:33.840Z,1.48
2022-07-25T20:48:00.320Z,1.30
2022-07-25T20:50:26.837Z,1.40
2022-07-25T20:52:53.314Z,1.70
2022-07-25T20:55:20.256Z,1.50
2022-07-25T20:57:50.513Z,1.30
2022-07-25T21:00:17.510Z,1.80
2022-07-25T21:02:43.983Z,1.60
2022-07-25T21:05:10.467Z,1.38
2022-07-25T21:07:37.089Z,1.52
2022-07-25T21:10:04.548Z,1.50
2022-07-25T21:12:32.939Z,1.70
2022-07-25T21:15:01.140Z,1.40
2022-07-25T21:17:27.792Z,1.30
2022-07-25T21:19:54.230Z,1.55
2022-07-25T21:22:21.034Z,1.85
2022-07-25T21:24:49.358Z,1.50
2022-07-25T21:27:17.122Z,1.63
2022-07-25T21:29:44.282Z,1.30
2022-07-25T21:32:13.455Z,1.80
2022-07-25T21:34:45.605Z,1.20
2022-07-25T21:37:12.909Z,1.52
2022-07-25T21:39:39.497Z,1.33
2022-07-25T21:42:09.675Z,1.35
2022-07-25T21:44:41.641Z,1.05
2022-07-25T21:47:08.940Z,1.67
2022-07-25T21:49:54.757Z,1.38
2022-07-25T21:52:30.355Z,1.33
2022-07-25T21:55:02.140Z,1.38
2022-07-25T21:57:28.497Z,1.15
2022-07-25T21:59:55.309Z,1.25
2022-07-25T22:02:22.069Z,1.48
2022-07-25T22:04:49.751Z,1.13
2022-07-25T22:07:16.200Z,1.33
2022-07-25T22:09:42.710Z,1.50
2022-07-25T22:12:09.431Z,1.65
2022-07-25T22:14:36.827Z,1.33
2022-07-25T22:17:03.531Z,1.50
2022-07-25T22:19:30.182Z,1.50
2022-07-25T22:21:56.594Z,1.85
2022-07-25T22:24:22.983Z,1.20
2022-07-25T22:26:50.331Z,1.25
2022-07-25T22:29:16.758Z,1.20
2022-07-25T22:31:44.420Z,1.25
2022-07-25T22:34:10.966Z,1.00
2022-07-25T22:36:37.361Z,1.20
2022-07-25T22:39:04.277Z,0.93
2022-07-25T22:41:31.043Z,1.33
2022-07-25T22:43:59.823Z,1.27
2022-07-25T22:46:28.523Z,0.90
2022-07-25T22:48:55.496Z,1.20
2022-07-25T22:51:22.359Z,1.00
2022-07-25T22:53:48.966Z,1.25
2022-07-25T22:56:16.742Z,1.20
2022-07-25T22:58:43.569Z,1.13
2022-07-25T23:01:12.565Z,1.00
2022-07-25T23:03:39.176Z,1.08
2022-07-25T23:06:05.808Z,1.35
2022-07-25T23:08:32.438Z,1.23
2022-07-25T23:10:59.018Z,1.00
2022-07-25T23:13:25.442Z,1.02
2022-07-25T23:15:51.958Z,1.30
2022-07-25T23:18:19.088Z,1.25
2022-07-25T23:20:45.577Z,1.60
2022-07-25T23:23:12.332Z,1.40
2022-07-25T23:25:39.408Z,0.90
2022-07-25T23:28:05.987Z,1.10
2022-07-25T23:30:36.731Z,1.33
2022-07-25T23:33:06.830Z,1.30
2022-07-25T23:35:33.490Z,1.35
2022-07-25T23:38:00.001Z,1.10
2022-07-25T23:40:26.851Z,1.23
2022-07-25T23:42:54.475Z,1.33
2022-07-25T23:45:21.591Z,1.75
2022-07-25T23:47:48.261Z,1.40
2022-07-25T23:50:15.602Z,1.23
2022-07-25T23:52:42.322Z,1.23
2022-07-25T23:55:09.289Z,1.23
2022-07-25T23:57:35.888Z,1.73
